sensor_id;sensor_type;location;lat;lon;timestamp;temperature;humidity
9941;DHT22;5009;50.656;7.188;2023-02-28T05:02:52;0.30;90.10
9941;DHT22;5009;50.656;7.188;2023-02-28T05:05:18;0.20;90.30
9941;DHT22;5009;50.656;7.188;2023-02-28T05:07:44;0.20;90.20
9941;DHT22;5009;50.656;7.188;2023-02-28T05:10:10;0.20;90.20
9941;DHT22;5009;50.656;7.188;2023-02-28T05:12:36;0.20;89.90
9941;DHT22;5009;50.656;7.188;2023-02-28T05:15:02;0.20;89.00
9941;DHT22;5009;50.656;7.188;2023-02-28T05:17:28;0.30;88.20
9941;DHT22;5009;50.656;7.188;2023-02-28T05:19:54;0.30;87.00
9941;DHT22;5009;50.656;7.188;2023-02-28T05:22:19;0.30;86.60
9941;DHT22;5009;50.656;7.188;2023-02-28T05:24:45;0.30;86.10
9941;DHT22;5009;50.656;7.188;2023-02-28T05:27:11;0.30;87.40
9941;DHT22;5009;50.656;7.188;2023-02-28T05:29:36;0.30;86.40
9941;DHT22;5009;50.656;7.188;2023-02-28T05:32:08;0.30;86.60
9941;DHT22;5009;50.656;7.188;2023-02-28T05:34:34;0.30;86.80
9941;DHT22;5009;50.656;7.188;2023-02-28T05:36:59;0.30;86.80
9941;DHT22;5009;50.656;7.188;2023-02-28T05:39:25;0.20;87.20
9941;DHT22;5009;50.656;7.188;2023-02-28T05:41:50;0.20;87.30
9941;DHT22;5009;50.656;7.188;2023-02-28T05:44:16;0.20;87.60
9941;DHT22;5009;50.656;7.188;2023-02-28T05:46:41;0.20;87.50
9941;DHT22;5009;50.656;7.188;2023-02-28T05:49:07;0.20;87.40
9941;DHT22;5009;50.656;7.188;2023-02-28T05:51:32;0.30;87.60
9941;DHT22;5009;50.656;7.188;2023-02-28T05:54:00;0.20;87.80
9941;DHT22;5009;50.656;7.188;2023-02-28T05:56:26;0.20;87.40
9941;DHT22;5009;50.656;7.188;2023-02-28T05:58:52;0.20;87.60
9941;DHT22;5009;50.656;7.188;2023-02-28T06:01:24;0.10;87.90
9941;DHT22;5009;50.656;7.188;2023-02-28T06:03:51;0.10;88.30
9941;DHT22;5009;50.656;7.188;2023-02-28T06:06:17;0.10;88.70
9941;DHT22;5009;50.656;7.188;2023-02-28T06:08:43;0.00;88.70
9941;DHT22;5009;50.656;7.188;2023-02-28T06:12:41;0.00;88.70
9941;DHT22;5009;50.656;7.188;2023-02-28T06:15:16;0.00;90.00
9941;DHT22;5009;50.656;7.188;2023-02-28T06:17:43;-0.10;89.00
9941;DHT22;5009;50.656;7.188;2023-02-28T06:20:10;0.00;89.50
9941;DHT22;5009;50.656;7.188;2023-02-28T06:22:38;0.00;89.40
9941;DHT22;5009;50.656;7.188;2023-02-28T06:25:04;-0.10;89.50
9941;DHT22;5009;50.656;7.188;2023-02-28T06:27:31;0.00;89.70
9941;DHT22;5009;50.656;7.188;2023-02-28T06:29:57;0.00;89.50
9941;DHT22;5009;50.656;7.188;2023-02-28T06:32:22;0.00;89.50
9941;DHT22;5009;50.656;7.188;2023-02-28T06:34:48;0.00;89.40
9941;DHT22;5009;50.656;7.188;2023-02-28T06:37:14;0.00;89.50
9941;DHT22;5009;50.656;7.188;2023-02-28T06:39:39;0.00;89.20
9941;DHT22;5009;50.656;7.188;2023-02-28T06:42:05;0.00;89.10
9941;DHT22;5009;50.656;7.188;2023-02-28T06:44:31;0.10;89.40
9941;DHT22;5009;50.656;7.188;2023-02-28T06:47:01;0.20;89.30
9941;DHT22;5009;50.656;7.188;2023-02-28T06:49:27;0.20;88.80
9941;DHT22;5009;50.656;7.188;2023-02-28T06:51:53;0.30;88.70
9941;DHT22;5009;50.656;7.188;2023-02-28T06:54:19;0.40;88.70
9941;DHT22;5009;50.656;7.188;2023-02-28T06:56:45;0.50;88.00
9941;DHT22;5009;50.656;7.188;2023-02-28T06:59:12;0.60;88.00
9941;DHT22;5009;50.656;7.188;2023-02-28T07:01:38;0.60;87.20
9941;DHT22;5009;50.656;7.188;2023-02-28T07:04:05;0.70;87.20
9941;DHT22;5009;50.656;7.188;2023-02-28T07:06:31;0.80;87.20
9941;DHT22;5009;50.656;7.188;2023-02-28T07:08:57;0.80;86.80
9941;DHT22;5009;50.656;7.188;2023-02-28T07:11:25;0.90;86.80
9941;DHT22;5009;50.656;7.188;2023-02-28T07:13:52;1.00;86.40
9941;DHT22;5009;50.656;7.188;2023-02-28T07:16:18;1.10;85.40
9941;DHT22;5009;50.656;7.188;2023-02-28T07:18:44;1.20;84.70
9941;DHT22;5009;50.656;7.188;2023-02-28T07:22:44;1.50;84.00
9941;DHT22;5009;50.656;7.188;2023-02-28T07:25:09;1.50;82.20
9941;DHT22;5009;50.656;7.188;2023-02-28T07:27:35;1.70;83.00
9941;DHT22;5009;50.656;7.188;2023-02-28T07:30:01;2.20;82.40
9941;DHT22;5009;50.656;7.188;2023-02-28T07:32:28;2.70;78.50
9941;DHT22;5009;50.656;7.188;2023-02-28T07:34:54;3.40;76.90
9941;DHT22;5009;50.656;7.188;2023-02-28T07:37:21;4.50;72.70
9941;DHT22;5009;50.656;7.188;2023-02-28T07:39:47;5.80;69.20
9941;DHT22;5009;50.656;7.188;2023-02-28T07:42:13;7.40;64.30
9941;DHT22;5009;50.656;7.188;2023-02-28T07:44:39;8.40;58.50
9941;DHT22;5009;50.656;7.188;2023-02-28T07:47:09;9.70;55.00
9941;DHT22;5009;50.656;7.188;2023-02-28T07:49:38;10.50;52.00
9941;DHT22;5009;50.656;7.188;2023-02-28T07:52:06;10.90;49.20
9941;DHT22;5009;50.656;7.188;2023-02-28T07:54:32;10.80;48.60
9941;DHT22;5009;50.656;7.188;2023-02-28T07:56:58;10.50;47.50
9941;DHT22;5009;50.656;7.188;2023-02-28T07:59:24;10.70;46.30
9941;DHT22;5009;50.656;7.188;2023-02-28T08:01:50;10.00;47.10
9941;DHT22;5009;50.656;7.188;2023-02-28T08:04:18;11.00;46.20
9941;DHT22;5009;50.656;7.188;2023-02-28T08:06:44;11.50;45.30
9941;DHT22;5009;50.656;7.188;2023-02-28T08:09:10;10.60;44.30
9941;DHT22;5009;50.656;7.188;2023-02-28T08:11:36;9.70;45.00
9941;DHT22;5009;50.656;7.188;2023-02-28T08:14:02;9.80;46.30
9941;DHT22;5009;50.656;7.188;2023-02-28T08:16:28;10.60;45.90
9941;DHT22;5009;50.656;7.188;2023-02-28T08:18:54;11.40;43.90
9941;DHT22;5009;50.656;7.188;2023-02-28T08:21:20;11.10;43.00
9941;DHT22;5009;50.656;7.188;2023-02-28T08:23:47;12.10;43.50
9941;DHT22;5009;50.656;7.188;2023-02-28T08:26:14;11.90;42.30
9941;DHT22;5009;50.656;7.188;2023-02-28T08:28:39;11.40;42.20
9941;DHT22;5009;50.656;7.188;2023-02-28T08:31:10;10.50;42.80
9941;DHT22;5009;50.656;7.188;2023-02-28T08:33:36;9.50;43.20
9941;DHT22;5009;50.656;7.188;2023-02-28T08:36:02;8.80;44.10
9941;DHT22;5009;50.656;7.188;2023-02-28T08:38:28;8.40;44.70
9941;DHT22;5009;50.656;7.188;2023-02-28T08:40:58;8.00;45.10
9941;DHT22;5009;50.656;7.188;2023-02-28T08:43:24;6.80;45.50
9941;DHT22;5009;50.656;7.188;2023-02-28T08:45:56;6.90;46.40
9941;DHT22;5009;50.656;7.188;2023-02-28T08:48:26;6.90;46.50
9941;DHT22;5009;50.656;7.188;2023-02-28T08:51:04;6.40;46.20
9941;DHT22;5009;50.656;7.188;2023-02-28T08:53:30;6.30;47.20
9941;DHT22;5009;50.656;7.188;2023-02-28T08:55:58;5.90;47.20
9941;DHT22;5009;50.656;7.188;2023-02-28T08:58:24;5.70;47.50
9941;DHT22;5009;50.656;7.188;2023-02-28T09:00:50;5.10;47.20
9941;DHT22;5009;50.656;7.188;2023-02-28T09:03:16;5.40;48.00
9941;DHT22;5009;50.656;7.188;2023-02-28T09:05:55;5.60;48.00
9941;DHT22;5009;50.656;7.188;2023-02-28T09:08:21;5.70;48.00
9941;DHT22;5009;50.656;7.188;2023-02-28T09:10:46;5.60;47.20
9941;DHT22;5009;50.656;7.188;2023-02-28T09:13:12;5.10;47.60
9941;DHT22;5009;50.656;7.188;2023-02-28T09:15:38;5.30;47.90
9941;DHT22;5009;50.656;7.188;2023-02-28T09:18:04;5.30;48.50
9941;DHT22;5009;50.656;7.188;2023-02-28T09:20:30;5.50;48.20
9941;DHT22;5009;50.656;7.188;2023-02-28T09:22:55;5.40;47.70
9941;DHT22;5009;50.656;7.188;2023-02-28T09:25:21;5.30;47.60
9941;DHT22;5009;50.656;7.188;2023-02-28T09:27:47;5.10;47.70
9941;DHT22;5009;50.656;7.188;2023-02-28T09:30:12;5.20;48.00
9941;DHT22;5009;50.656;7.188;2023-02-28T09:32:38;5.30;48.50
9941;DHT22;5009;50.656;7.188;2023-02-28T09:35:04;5.30;47.70
9941;DHT22;5009;50.656;7.188;2023-02-28T09:37:30;5.50;48.00
9941;DHT22;5009;50.656;7.188;2023-02-28T09:39:56;5.50;47.70
9941;DHT22;5009;50.656;7.188;2023-02-28T09:42:28;5.50;48.30
9941;DHT22;5009;50.656;7.188;2023-02-28T09:44:55;5.30;48.00
9941;DHT22;5009;50.656;7.188;2023-02-28T09:47:34;5.40;48.10
9941;DHT22;5009;50.656;7.188;2023-02-28T09:50:33;5.50;48.60
9941;DHT22;5009;50.656;7.188;2023-02-28T09:53:03;5.50;48.40
9941;DHT22;5009;50.656;7.188;2023-02-28T09:55:37;5.70;48.00
9941;DHT22;5009;50.656;7.188;2023-02-28T09:58:05;5.50;47.90
9941;DHT22;5009;50.656;7.188;2023-02-28T10:00:36;5.60;47.80
9941;DHT22;5009;50.656;7.188;2023-02-28T10:03:08;5.60;48.00
9941;DHT22;5009;50.656;7.188;2023-02-28T10:05:41;5.40;47.30
9941;DHT22;5009;50.656;7.188;2023-02-28T10:08:13;5.30;47.10
9941;DHT22;5009;50.656;7.188;2023-02-28T10:10:44;5.40;47.40
9941;DHT22;5009;50.656;7.188;2023-02-28T10:13:25;5.70;47.60
9941;DHT22;5009;50.656;7.188;2023-02-28T10:15:58;5.80;47.50
9941;DHT22;5009;50.656;7.188;2023-02-28T10:18:30;6.00;47.40
9941;DHT22;5009;50.656;7.188;2023-02-28T10:21:02;5.60;46.80
9941;DHT22;5009;50.656;7.188;2023-02-28T10:23:34;5.50;47.10
9941;DHT22;5009;50.656;7.188;2023-02-28T10:26:13;5.50;47.40
9941;DHT22;5009;50.656;7.188;2023-02-28T10:28:41;5.50;47.30
9941;DHT22;5009;50.656;7.188;2023-02-28T10:31:14;5.40;47.00
9941;DHT22;5009;50.656;7.188;2023-02-28T10:33:41;5.20;46.60
9941;DHT22;5009;50.656;7.188;2023-02-28T10:36:13;4.90;47.00
9941;DHT22;5009;50.656;7.188;2023-02-28T10:38:40;5.00;47.50
9941;DHT22;5009;50.656;7.188;2023-02-28T10:41:08;5.20;47.50
9941;DHT22;5009;50.656;7.188;2023-02-28T10:43:36;5.20;47.10
9941;DHT22;5009;50.656;7.188;2023-02-28T10:51:07;5.00;45.70
9941;DHT22;5009;50.656;7.188;2023-02-28T10:53:50;5.10;45.90
9941;DHT22;5009;50.656;7.188;2023-02-28T10:56:21;5.10;45.40
9941;DHT22;5009;50.656;7.188;2023-02-28T10:58:59;5.00;45.50
9941;DHT22;5009;50.656;7.188;2023-02-28T11:01:36;5.20;45.80
9941;DHT22;5009;50.656;7.188;2023-02-28T11:04:02;5.10;45.60
9941;DHT22;5009;50.656;7.188;2023-02-28T11:06:33;5.20;45.30
9941;DHT22;5009;50.656;7.188;2023-02-28T11:09:02;5.00;45.20
9941;DHT22;5009;50.656;7.188;2023-02-28T11:11:31;4.90;45.40
9941;DHT22;5009;50.656;7.188;2023-02-28T11:14:06;4.90;45.50
9941;DHT22;5009;50.656;7.188;2023-02-28T11:16:41;4.80;45.50
9941;DHT22;5009;50.656;7.188;2023-02-28T11:19:20;4.70;45.40
9941;DHT22;5009;50.656;7.188;2023-02-28T11:21:53;4.70;45.30
9941;DHT22;5009;50.656;7.188;2023-02-28T11:24:30;4.80;45.60
9941;DHT22;5009;50.656;7.188;2023-02-28T11:26:57;4.90;45.90
9941;DHT22;5009;50.656;7.188;2023-02-28T11:29:26;4.90;45.20
9941;DHT22;5009;50.656;7.188;2023-02-28T11:32:19;4.90;45.40
9941;DHT22;5009;50.656;7.188;2023-02-28T11:34:46;4.90;45.70
9941;DHT22;5009;50.656;7.188;2023-02-28T11:37:15;5.00;45.60
9941;DHT22;5009;50.656;7.188;2023-02-28T11:39:42;5.00;45.40
9941;DHT22;5009;50.656;7.188;2023-02-28T11:42:48;5.00;45.60
9941;DHT22;5009;50.656;7.188;2023-02-28T11:45:35;5.00;45.80
9941;DHT22;5009;50.656;7.188;2023-02-28T11:48:32;4.90;45.30
9941;DHT22;5009;50.656;7.188;2023-02-28T11:56:31;4.90;45.30
9941;DHT22;5009;50.656;7.188;2023-02-28T12:14:57;4.90;45.20
9941;DHT22;5009;50.656;7.188;2023-02-28T12:18:19;4.90;45.10
9941;DHT22;5009;50.656;7.188;2023-02-28T12:23:56;5.00;44.90
9941;DHT22;5009;50.656;7.188;2023-02-28T12:26:38;5.00;45.20
9941;DHT22;5009;50.656;7.188;2023-02-28T12:29:25;5.00;45.30
9941;DHT22;5009;50.656;7.188;2023-02-28T12:32:12;5.10;45.70
9941;DHT22;5009;50.656;7.188;2023-02-28T12:34:51;5.10;45.40
9941;DHT22;5009;50.656;7.188;2023-02-28T12:40:21;5.00;45.30
9941;DHT22;5009;50.656;7.188;2023-02-28T12:43:00;5.10;45.30
9941;DHT22;5009;50.656;7.188;2023-02-28T12:45:49;5.10;45.30
9941;DHT22;5009;50.656;7.188;2023-02-28T12:48:24;5.30;45.60
9941;DHT22;5009;50.656;7.188;2023-02-28T12:50:51;5.20;45.30
9941;DHT22;5009;50.656;7.188;2023-02-28T12:53:25;5.30;45.40
9941;DHT22;5009;50.656;7.188;2023-02-28T12:56:08;5.30;45.30
9941;DHT22;5009;50.656;7.188;2023-02-28T12:58:51;5.40;45.80
9941;DHT22;5009;50.656;7.188;2023-02-28T13:05:05;5.30;45.50
9941;DHT22;5009;50.656;7.188;2023-02-28T13:09:53;5.30;45.80
9941;DHT22;5009;50.656;7.188;2023-02-28T13:12:19;5.20;45.20
9941;DHT22;5009;50.656;7.188;2023-02-28T13:14:45;5.20;45.70
9941;DHT22;5009;50.656;7.188;2023-02-28T13:17:15;5.30;45.30
9941;DHT22;5009;50.656;7.188;2023-02-28T13:20:33;5.20;45.60
9941;DHT22;5009;50.656;7.188;2023-02-28T13:25:00;5.30;45.60
9941;DHT22;5009;50.656;7.188;2023-02-28T13:27:40;5.30;45.30
9941;DHT22;5009;50.656;7.188;2023-02-28T13:33:35;5.20;45.40
9941;DHT22;5009;50.656;7.188;2023-02-28T13:38:44;5.30;46.30
9941;DHT22;5009;50.656;7.188;2023-02-28T13:42:46;5.50;46.50
9941;DHT22;5009;50.656;7.188;2023-02-28T13:45:24;5.50;46.10
9941;DHT22;5009;50.656;7.188;2023-02-28T13:48:02;5.50;45.90
9941;DHT22;5009;50.656;7.188;2023-02-28T13:55:52;5.50;45.80
9941;DHT22;5009;50.656;7.188;2023-02-28T14:03:42;5.30;46.40
9941;DHT22;5009;50.656;7.188;2023-02-28T14:06:22;5.40;46.60
9941;DHT22;5009;50.656;7.188;2023-02-28T14:11:39;5.40;46.90
9941;DHT22;5009;50.656;7.188;2023-02-28T14:14:06;5.40;46.20
9941;DHT22;5009;50.656;7.188;2023-02-28T14:16:45;5.40;47.00
9941;DHT22;5009;50.656;7.188;2023-02-28T14:19:15;5.50;46.80
9941;DHT22;5009;50.656;7.188;2023-02-28T14:30:42;5.50;46.60
9941;DHT22;5009;50.656;7.188;2023-02-28T14:35:54;5.50;46.60
9941;DHT22;5009;50.656;7.188;2023-02-28T14:38:32;5.50;46.60
9941;DHT22;5009;50.656;7.188;2023-02-28T14:41:01;5.40;46.40
9941;DHT22;5009;50.656;7.188;2023-02-28T14:43:28;5.40;46.40
9941;DHT22;5009;50.656;7.188;2023-02-28T14:46:01;5.40;46.50
9941;DHT22;5009;50.656;7.188;2023-02-28T14:48:27;5.40;46.90
9941;DHT22;5009;50.656;7.188;2023-02-28T14:50:58;5.40;46.40
9941;DHT22;5009;50.656;7.188;2023-02-28T14:53:30;5.50;46.80
9941;DHT22;5009;50.656;7.188;2023-02-28T14:56:00;5.50;46.60
9941;DHT22;5009;50.656;7.188;2023-02-28T14:58:32;5.50;46.80
9941;DHT22;5009;50.656;7.188;2023-02-28T15:01:00;5.50;46.80
9941;DHT22;5009;50.656;7.188;2023-02-28T15:05:57;5.40;46.70
9941;DHT22;5009;50.656;7.188;2023-02-28T15:08:24;5.50;47.10
9941;DHT22;5009;50.656;7.188;2023-02-28T15:13:20;5.50;46.90
9941;DHT22;5009;50.656;7.188;2023-02-28T15:15:57;5.50;46.60
9941;DHT22;5009;50.656;7.188;2023-02-28T15:21:23;5.40;46.50
9941;DHT22;5009;50.656;7.188;2023-02-28T15:24:01;5.40;46.60
9941;DHT22;5009;50.656;7.188;2023-02-28T15:26:40;5.40;46.60
9941;DHT22;5009;50.656;7.188;2023-02-28T15:29:12;5.50;46.70
9941;DHT22;5009;50.656;7.188;2023-02-28T15:31:55;5.40;46.50
9941;DHT22;5009;50.656;7.188;2023-02-28T15:37:28;5.30;46.70
9941;DHT22;5009;50.656;7.188;2023-02-28T15:39:56;5.30;46.80
9941;DHT22;5009;50.656;7.188;2023-02-28T15:42:28;5.30;47.00
9941;DHT22;5009;50.656;7.188;2023-02-28T15:44:54;5.30;47.30
9941;DHT22;5009;50.656;7.188;2023-02-28T15:47:25;5.40;47.50
9941;DHT22;5009;50.656;7.188;2023-02-28T15:49:59;5.40;47.20
9941;DHT22;5009;50.656;7.188;2023-02-28T15:54:57;5.40;47.20
9941;DHT22;5009;50.656;7.188;2023-02-28T15:57:28;5.40;47.20
9941;DHT22;5009;50.656;7.188;2023-02-28T15:59:56;5.40;47.50
9941;DHT22;5009;50.656;7.188;2023-02-28T16:02:33;5.40;47.40
9941;DHT22;5009;50.656;7.188;2023-02-28T16:07:32;5.40;47.80
9941;DHT22;5009;50.656;7.188;2023-02-28T16:09:58;5.40;47.60
9941;DHT22;5009;50.656;7.188;2023-02-28T16:12:29;5.40;47.80
9941;DHT22;5009;50.656;7.188;2023-02-28T16:14:57;5.40;47.60
9941;DHT22;5009;50.656;7.188;2023-02-28T16:17:32;5.30;47.70
9941;DHT22;5009;50.656;7.188;2023-02-28T16:19:59;5.30;47.90
9941;DHT22;5009;50.656;7.188;2023-02-28T16:22:25;5.30;48.10
9941;DHT22;5009;50.656;7.188;2023-02-28T16:24:51;5.30;48.10
9941;DHT22;5009;50.656;7.188;2023-02-28T16:27:20;5.20;48.00
9941;DHT22;5009;50.656;7.188;2023-02-28T16:29:47;5.20;48.10
9941;DHT22;5009;50.656;7.188;2023-02-28T16:32:14;5.20;48.20
9941;DHT22;5009;50.656;7.188;2023-02-28T16:34:41;5.20;48.10
9941;DHT22;5009;50.656;7.188;2023-02-28T16:37:15;5.20;48.10
9941;DHT22;5009;50.656;7.188;2023-02-28T16:39:42;5.20;48.30
9941;DHT22;5009;50.656;7.188;2023-02-28T16:42:17;5.20;48.10
9941;DHT22;5009;50.656;7.188;2023-02-28T16:44:46;5.20;48.20
9941;DHT22;5009;50.656;7.188;2023-02-28T16:47:12;5.20;48.50
9941;DHT22;5009;50.656;7.188;2023-02-28T16:49:38;5.30;48.70
9941;DHT22;5009;50.656;7.188;2023-02-28T16:52:07;5.20;48.70
9941;DHT22;5009;50.656;7.188;2023-02-28T16:54:33;5.20;48.70
9941;DHT22;5009;50.656;7.188;2023-02-28T16:56:59;5.20;48.80
9941;DHT22;5009;50.656;7.188;2023-02-28T16:59:26;5.20;48.90
9941;DHT22;5009;50.656;7.188;2023-02-28T17:01:52;5.10;48.90
9941;DHT22;5009;50.656;7.188;2023-02-28T17:04:19;5.10;48.90
9941;DHT22;5009;50.656;7.188;2023-02-28T17:06:44;5.10;49.00
9941;DHT22;5009;50.656;7.188;2023-02-28T17:09:22;5.10;49.20
9941;DHT22;5009;50.656;7.188;2023-02-28T17:11:48;5.00;49.20
9941;DHT22;5009;50.656;7.188;2023-02-28T17:14:15;4.90;49.30
9941;DHT22;5009;50.656;7.188;2023-02-28T17:16:41;5.00;49.90
9941;DHT22;5009;50.656;7.188;2023-02-28T17:19:11;4.90;50.10
9941;DHT22;5009;50.656;7.188;2023-02-28T17:21:37;4.80;50.20
9941;DHT22;5009;50.656;7.188;2023-02-28T17:24:04;4.80;50.50
9941;DHT22;5009;50.656;7.188;2023-02-28T17:26:30;4.70;51.10
9941;DHT22;5009;50.656;7.188;2023-02-28T17:28:57;4.60;51.00
9941;DHT22;5009;50.656;7.188;2023-02-28T17:31:26;4.60;51.30
9941;DHT22;5009;50.656;7.188;2023-02-28T17:33:53;4.60;51.70
9941;DHT22;5009;50.656;7.188;2023-02-28T17:36:23;4.50;51.90
9941;DHT22;5009;50.656;7.188;2023-02-28T17:38:50;4.50;52.00
9941;DHT22;5009;50.656;7.188;2023-02-28T17:41:16;4.40;52.30
9941;DHT22;5009;50.656;7.188;2023-02-28T17:43:48;4.30;52.80
9941;DHT22;5009;50.656;7.188;2023-02-28T17:46:21;4.30;53.40
9941;DHT22;5009;50.656;7.188;2023-02-28T17:48:51;4.10;53.40
9941;DHT22;5009;50.656;7.188;2023-02-28T17:51:22;4.10;53.80
9941;DHT22;5009;50.656;7.188;2023-02-28T17:53:48;4.10;54.10
9941;DHT22;5009;50.656;7.188;2023-02-28T17:56:20;4.00;54.20
9941;DHT22;5009;50.656;7.188;2023-02-28T17:58:46;3.90;54.30
9941;DHT22;5009;50.656;7.188;2023-02-28T18:01:12;3.80;54.70
9941;DHT22;5009;50.656;7.188;2023-02-28T18:03:38;3.80;55.00
9941;DHT22;5009;50.656;7.188;2023-02-28T18:06:04;3.70;55.20
9941;DHT22;5009;50.656;7.188;2023-02-28T18:08:31;3.70;55.50
9941;DHT22;5009;50.656;7.188;2023-02-28T18:11:00;3.60;55.80
9941;DHT22;5009;50.656;7.188;2023-02-28T18:13:25;3.60;56.40
9941;DHT22;5009;50.656;7.188;2023-02-28T18:15:53;3.50;56.60
9941;DHT22;5009;50.656;7.188;2023-02-28T18:18:19;3.40;57.30
9941;DHT22;5009;50.656;7.188;2023-02-28T18:20:44;3.40;57.80
9941;DHT22;5009;50.656;7.188;2023-02-28T18:23:10;3.30;58.20
9941;DHT22;5009;50.656;7.188;2023-02-28T18:25:35;3.20;59.00
9941;DHT22;5009;50.656;7.188;2023-02-28T18:28:03;3.20;59.50
9941;DHT22;5009;50.656;7.188;2023-02-28T18:30:34;3.00;60.80
9941;DHT22;5009;50.656;7.188;2023-02-28T18:33:02;3.00;61.40
9941;DHT22;5009;50.656;7.188;2023-02-28T18:35:29;2.90;62.50
9941;DHT22;5009;50.656;7.188;2023-02-28T18:40:32;2.80;64.90
9941;DHT22;5009;50.656;7.188;2023-02-28T18:42:57;2.70;65.90
9941;DHT22;5009;50.656;7.188;2023-02-28T18:45:23;2.70;66.70
9941;DHT22;5009;50.656;7.188;2023-02-28T18:47:49;2.60;67.10
9941;DHT22;5009;50.656;7.188;2023-02-28T18:50:14;2.60;69.00
9941;DHT22;5009;50.656;7.188;2023-02-28T18:52:40;2.50;69.40
9941;DHT22;5009;50.656;7.188;2023-02-28T18:55:06;2.40;70.50
9941;DHT22;5009;50.656;7.188;2023-02-28T18:57:33;2.40;71.40
9941;DHT22;5009;50.656;7.188;2023-02-28T18:59:58;2.30;72.70
9941;DHT22;5009;50.656;7.188;2023-02-28T19:02:24;2.30;73.80
9941;DHT22;5009;50.656;7.188;2023-02-28T19:04:50;2.20;74.50
9941;DHT22;5009;50.656;7.188;2023-02-28T19:07:16;2.20;75.60
9941;DHT22;5009;50.656;7.188;2023-02-28T19:09:41;2.10;76.70
9941;DHT22;5009;50.656;7.188;2023-02-28T19:12:07;2.10;77.20
9941;DHT22;5009;50.656;7.188;2023-02-28T19:14:33;2.00;77.60
9941;DHT22;5009;50.656;7.188;2023-02-28T19:16:59;2.00;78.40
9941;DHT22;5009;50.656;7.188;2023-02-28T19:19:24;2.00;79.10
9941;DHT22;5009;50.656;7.188;2023-02-28T19:21:50;1.90;79.90
9941;DHT22;5009;50.656;7.188;2023-02-28T19:24:15;1.80;81.00
9941;DHT22;5009;50.656;7.188;2023-02-28T19:26:41;1.80;81.60
9941;DHT22;5009;50.656;7.188;2023-02-28T19:29:07;1.70;82.60
9941;DHT22;5009;50.656;7.188;2023-02-28T19:31:32;1.70;82.90
9941;DHT22;5009;50.656;7.188;2023-02-28T19:33:59;1.70;83.70
9941;DHT22;5009;50.656;7.188;2023-02-28T19:36:24;1.60;84.10
9941;DHT22;5009;50.656;7.188;2023-02-28T19:38:51;1.60;84.00
9941;DHT22;5009;50.656;7.188;2023-02-28T19:41:17;1.50;84.60
9941;DHT22;5009;50.656;7.188;2023-02-28T19:43:43;1.50;86.00
9941;DHT22;5009;50.656;7.188;2023-02-28T19:46:09;1.50;86.40
9941;DHT22;5009;50.656;7.188;2023-02-28T19:48:36;1.40;86.90
9941;DHT22;5009;50.656;7.188;2023-02-28T19:51:04;1.40;87.10
9941;DHT22;5009;50.656;7.188;2023-02-28T19:53:31;1.30;87.30
9941;DHT22;5009;50.656;7.188;2023-02-28T19:55:57;1.30;87.70
9941;DHT22;5009;50.656;7.188;2023-02-28T19:58:24;1.30;87.80
9941;DHT22;5009;50.656;7.188;2023-02-28T20:00:50;1.30;88.60
9941;DHT22;5009;50.656;7.188;2023-02-28T20:03:16;1.20;88.50
9941;DHT22;5009;50.656;7.188;2023-02-28T20:05:43;1.20;88.90
9941;DHT22;5009;50.656;7.188;2023-02-28T20:08:08;1.20;89.10
9941;DHT22;5009;50.656;7.188;2023-02-28T20:10:35;1.20;89.80
9941;DHT22;5009;50.656;7.188;2023-02-28T20:13:15;1.10;89.60
9941;DHT22;5009;50.656;7.188;2023-02-28T20:15:40;1.10;90.10
9941;DHT22;5009;50.656;7.188;2023-02-28T20:18:06;1.10;90.40
9941;DHT22;5009;50.656;7.188;2023-02-28T20:20:31;1.00;90.50
9941;DHT22;5009;50.656;7.188;2023-02-28T20:23:01;1.00;90.50
9941;DHT22;5009;50.656;7.188;2023-02-28T20:25:26;0.90;90.90
9941;DHT22;5009;50.656;7.188;2023-02-28T20:27:52;0.80;91.60
9941;DHT22;5009;50.656;7.188;2023-02-28T20:30:17;0.80;91.70
9941;DHT22;5009;50.656;7.188;2023-02-28T20:32:47;0.80;91.70
9941;DHT22;5009;50.656;7.188;2023-02-28T20:35:13;0.80;91.60
9941;DHT22;5009;50.656;7.188;2023-02-28T20:37:38;0.80;91.40
9941;DHT22;5009;50.656;7.188;2023-02-28T20:40:05;0.80;91.50
9941;DHT22;5009;50.656;7.188;2023-02-28T20:42:30;0.70;91.70
9941;DHT22;5009;50.656;7.188;2023-02-28T20:44:56;0.70;91.70
9941;DHT22;5009;50.656;7.188;2023-02-28T20:47:22;0.70;91.90
9941;DHT22;5009;50.656;7.188;2023-02-28T20:49:47;0.70;91.90
9941;DHT22;5009;50.656;7.188;2023-02-28T20:52:13;0.70;92.00
9941;DHT22;5009;50.656;7.188;2023-02-28T20:54:38;0.60;91.90
9941;DHT22;5009;50.656;7.188;2023-02-28T20:57:04;0.60;92.00
9941;DHT22;5009;50.656;7.188;2023-02-28T20:59:29;0.60;92.20
9941;DHT22;5009;50.656;7.188;2023-02-28T21:01:55;0.60;92.20
9941;DHT22;5009;50.656;7.188;2023-02-28T21:04:21;0.60;92.30
9941;DHT22;5009;50.656;7.188;2023-02-28T21:06:46;0.50;92.30
9941;DHT22;5009;50.656;7.188;2023-02-28T21:09:13;0.50;92.60
9941;DHT22;5009;50.656;7.188;2023-02-28T21:11:40;0.50;92.90
9941;DHT22;5009;50.656;7.188;2023-02-28T21:14:10;0.40;93.10
9941;DHT22;5009;50.656;7.188;2023-02-28T21:16:36;0.40;93.00
9941;DHT22;5009;50.656;7.188;2023-02-28T21:19:02;0.40;92.80
9941;DHT22;5009;50.656;7.188;2023-02-28T21:21:30;0.40;92.90
9941;DHT22;5009;50.656;7.188;2023-02-28T21:25:40;0.30;92.50
9941;DHT22;5009;50.656;7.188;2023-02-28T21:28:06;0.20;93.20
9941;DHT22;5009;50.656;7.188;2023-02-28T21:30:32;0.20;93.30
9941;DHT22;5009;50.656;7.188;2023-02-28T21:33:43;0.20;93.30
9941;DHT22;5009;50.656;7.188;2023-02-28T21:36:15;0.10;93.50
9941;DHT22;5009;50.656;7.188;2023-02-28T21:38:42;0.20;93.70
9941;DHT22;5009;50.656;7.188;2023-02-28T21:41:14;0.10;93.60
9941;DHT22;5009;50.656;7.188;2023-02-28T21:43:40;0.10;93.60
9941;DHT22;5009;50.656;7.188;2023-02-28T21:46:11;0.10;93.60
9941;DHT22;5009;50.656;7.188;2023-02-28T21:48:37;0.10;93.80
9941;DHT22;5009;50.656;7.188;2023-02-28T21:53:03;0.00;94.00
9941;DHT22;5009;50.656;7.188;2023-02-28T21:55:28;0.00;94.10
9941;DHT22;5009;50.656;7.188;2023-02-28T21:57:54;-0.10;94.50
